Time;durP1;ratioP1;P1;durP2;ratioP2;P2;SDS_P1;SDS_P2;PMS_P1;PMS_P2;Temp;Humidity;BMP_temperature;BMP_pressure;BME280_temperature;BME280_humidity;BME280_pressure;Samples;Min_cycle;Max_cycle;Signal;HPM_P1;HPM_P2
2023/06/28 00:00:22;;;;;;;40.28;9.90;;;;;;;25.05;54.41;99343.89;1751457;82;21294;-80
2023/06/28 00:03:25;;;;;;;20.43;9.35;;;;;;;25.42;53.57;99346.61;1750128;82;21294;-81
2023/06/28 00:06:31;;;;;;;21.70;9.85;;;;;;;25.11;54.44;99348.33;1751506;82;21298;-79
2023/06/28 00:09:37;;;;;;;26.27;8.70;;;;;;;25.18;54.43;99345.20;1751495;82;21310;-79
2023/06/28 00:12:43;;;;;;;16.95;7.92;;;;;;;25.22;53.92;99349.91;1751487;82;21299;-80
2023/06/28 00:15:49;;;;;;;22.50;8.38;;;;;;;25.49;53.11;99347.06;1750522;82;21318;-80
2023/06/28 00:19:00;;;;;;;16.32;7.58;;;;;;;25.64;52.47;99342.70;1751446;82;21290;-80
2023/06/28 00:22:03;;;;;;;22.75;7.75;;;;;;;25.18;53.63;99342.40;1751390;82;21307;-79
2023/06/28 00:25:09;;;;;;;15.40;7.20;;;;;;;25.32;53.27;99339.73;1751337;82;21334;-81
2023/06/28 00:28:15;;;;;;;16.10;7.65;;;;;;;25.18;53.59;99334.84;1750535;82;21361;-80
2023/06/28 00:31:20;;;;;;;15.48;7.53;;;;;;;25.27;53.43;99336.99;1751475;82;21865;-80
2023/06/28 00:34:27;;;;;;;14.63;6.65;;;;;;;25.35;53.01;99339.95;1751449;82;21362;-80
2023/06/28 00:37:33;;;;;;;20.10;7.42;;;;;;;25.25;53.20;99335.87;1751112;82;21296;-81
2023/06/28 00:40:39;;;;;;;21.07;8.18;;;;;;;25.26;53.16;99337.53;1751470;82;21291;-80
2023/06/28 00:43:45;;;;;;;17.23;7.80;;;;;;;24.89;54.22;99327.83;1751503;82;21315;-80
2023/06/28 00:46:52;;;;;;;15.48;6.65;;;;;;;24.92;54.12;99323.59;1751568;82;21193;-81
2023/06/28 00:49:57;;;;;;;14.25;7.12;;;;;;;24.67;54.63;99326.08;1751421;82;21322;-81
2023/06/28 00:53:03;;;;;;;13.32;6.53;;;;;;;24.60;54.96;99333.95;1751642;82;21877;-80
2023/06/28 00:56:09;;;;;;;18.82;7.28;;;;;;;24.45;55.52;99330.16;1768249;81;21331;-80
2023/06/28 00:59:15;;;;;;;23.52;8.10;;;;;;;24.37;55.76;99338.31;1774454;81;21363;-80
2023/06/28 01:02:21;;;;;;;14.23;6.95;;;;;;;24.44;55.58;99326.27;1774391;81;21871;-79
2023/06/28 01:05:27;;;;;;;12.55;7.33;;;;;;;24.27;55.96;99331.37;1775417;81;21938;-80
2023/06/28 01:08:34;;;;;;;21.45;7.28;;;;;;;24.26;56.16;99322.73;1775039;81;21331;-80
2023/06/28 01:11:39;;;;;;;9.88;6.53;;;;;;;24.29;55.94;99328.58;1775882;81;21299;-80
2023/06/28 01:14:39;;;;;;;16.48;6.90;;;;;;;24.28;55.75;99326.05;1775489;81;22610;-79
2023/06/28 01:17:44;;;;;;;18.52;6.75;;;;;;;24.09;56.20;99328.16;1775792;81;21645;-80
2023/06/28 01:20:54;;;;;;;18.77;7.25;;;;;;;24.16;55.93;99331.45;1775320;81;21323;-80
2023/06/28 01:24:00;;;;;;;20.52;7.90;;;;;;;24.06;55.93;99339.91;1775820;81;21299;-80
2023/06/28 01:27:05;;;;;;;22.17;7.95;;;;;;;23.95;56.03;99329.36;1754669;81;21308;-80
2023/06/28 01:30:12;;;;;;;20.88;7.60;;;;;;;23.87;56.15;99327.73;1775897;81;21319;-80
2023/06/28 01:33:18;;;;;;;19.37;7.40;;;;;;;23.89;56.27;99332.45;1776067;81;21854;-79
2023/06/28 01:36:23;;;;;;;16.02;7.40;;;;;;;23.88;56.59;99328.00;1775139;81;21340;-80
2023/06/28 01:39:22;;;;;;;18.00;7.85;;;;;;;23.49;57.81;99321.73;1774505;81;21909;-80
2023/06/28 01:42:29;;;;;;;18.27;8.48;;;;;;;23.60;57.88;99323.91;1775889;81;21906;-80
2023/06/28 01:45:35;;;;;;;17.75;8.95;;;;;;;23.86;57.32;99317.69;1775786;81;21324;-80
2023/06/28 01:48:42;;;;;;;21.23;9.98;;;;;;;23.57;58.13;99326.73;1775195;81;21351;-80
2023/06/28 01:51:48;;;;;;;20.55;9.88;;;;;;;23.26;59.14;99327.39;1769816;81;21901;-80
2023/06/28 01:54:55;;;;;;;20.12;10.43;;;;;;;23.30;59.19;99327.67;1772993;81;21313;-81
2023/06/28 01:58:01;;;;;;;18.12;9.85;;;;;;;23.34;59.24;99331.56;1719743;82;21865;-81
2023/06/28 02:01:08;;;;;;;17.62;8.58;;;;;;;23.24;59.48;99326.82;1775020;81;21324;-80
2023/06/28 02:04:13;;;;;;;27.62;11.73;;;;;;;23.52;58.72;99334.27;1813338;79;21311;-80
2023/06/28 02:07:20;;;;;;;21.12;10.18;;;;;;;23.45;58.64;99333.19;1779285;80;21343;-81
2023/06/28 02:10:28;;;;;;;25.80;11.35;;;;;;;23.78;58.37;99326.09;1778255;80;21346;-81
2023/06/28 02:13:33;;;;;;;24.60;11.68;;;;;;;23.91;58.05;99327.44;1779739;80;21309;-81
2023/06/28 02:16:41;;;;;;;22.05;11.15;;;;;;;23.75;58.50;99321.64;1780056;80;21316;-81
2023/06/28 02:19:48;;;;;;;20.37;10.75;;;;;;;23.61;59.33;99326.41;1778783;79;21307;-81
2023/06/28 02:22:54;;;;;;;24.50;12.28;;;;;;;23.89;58.79;99328.27;1813455;79;21321;-81
2023/06/28 02:25:54;;;;;;;25.87;11.63;;;;;;;23.70;59.12;99330.87;1813591;79;21284;-80
2023/06/28 02:29:00;;;;;;;27.22;10.95;;;;;;;23.71;59.17;99329.21;1813090;79;21313;-81
2023/06/28 02:32:07;;;;;;;33.55;12.07;;;;;;;23.74;59.15;99326.39;1813341;79;21832;-80
2023/06/28 02:35:08;;;;;;;20.20;11.60;;;;;;;23.94;58.66;99332.42;1811792;79;21862;-80
2023/06/28 02:38:14;;;;;;;19.00;11.03;;;;;;;24.09;58.51;99325.38;1812086;79;21928;-81
2023/06/28 02:41:20;;;;;;;21.02;11.40;;;;;;;23.98;58.72;99327.94;1813463;79;21280;-80
2023/06/28 02:44:27;;;;;;;24.40;11.10;;;;;;;24.12;58.65;99332.32;1813398;79;21295;-81
2023/06/28 02:47:33;;;;;;;19.02;9.73;;;;;;;24.03;59.65;99325.11;1811856;79;21306;-81
2023/06/28 02:50:39;;;;;;;21.77;9.60;;;;;;;24.47;58.56;99325.13;1812144;79;21887;-80
2023/06/28 02:53:44;;;;;;;24.63;9.95;;;;;;;24.61;58.12;99325.29;1813314;79;21611;-80
2023/06/28 02:56:51;;;;;;;17.67;10.03;;;;;;;24.81;57.12;99329.03;1811549;79;21335;-82
2023/06/28 03:00:15;;;;;;;19.05;9.95;;;;;;;24.59;57.17;99324.73;1801667;79;21354;-80
2023/06/28 03:03:22;;;;;;;22.70;10.13;;;;;;;24.57;57.38;99322.80;1801094;79;21295;-80
2023/06/28 03:06:29;;;;;;;17.10;8.93;;;;;;;24.64;56.94;99331.67;1802508;79;21275;-81
2023/06/28 03:09:35;;;;;;;17.82;9.53;;;;;;;24.79;56.36;99328.47;1802207;79;21306;-80
2023/06/28 03:12:42;;;;;;;17.65;9.75;;;;;;;24.77;56.37;99326.55;1802531;79;21287;-80
2023/06/28 03:15:49;;;;;;;19.45;9.35;;;;;;;24.96;56.37;99326.08;1801606;79;21307;-81
2023/06/28 03:18:55;;;;;;;15.78;8.93;;;;;;;24.94;56.79;99328.34;1802605;79;21306;-81
2023/06/28 03:22:03;;;;;;;15.63;9.10;;;;;;;24.90;56.94;99331.46;1802285;79;21279;-80
2023/06/28 03:25:07;;;;;;;12.55;8.85;;;;;;;24.87;57.09;99332.04;1802511;79;21287;-81
2023/06/28 03:28:13;;;;;;;11.65;8.33;;;;;;;24.93;57.50;99332.25;1800974;79;21303;-81
2023/06/28 03:31:18;;;;;;;14.93;8.40;;;;;;;25.08;57.61;99333.55;1801033;79;21318;-80
2023/06/28 03:34:24;;;;;;;20.00;8.68;;;;;;;25.65;56.17;99337.37;1801021;79;21291;-81
2023/06/28 03:37:30;;;;;;;14.40;7.90;;;;;;;25.94;55.33;99328.05;1802320;79;21322;-81
2023/06/28 03:40:36;;;;;;;19.30;7.78;;;;;;;25.96;55.55;99327.17;1802135;79;21282;-81
2023/06/28 03:43:43;;;;;;;14.07;7.70;;;;;;;26.17;55.59;99326.33;1802392;79;21283;-80
2023/06/28 03:46:49;;;;;;;15.48;7.80;;;;;;;26.19;55.86;99323.47;1802494;79;21263;-81
2023/06/28 03:49:48;;;;;;;18.20;7.58;;;;;;;26.41;55.57;99329.86;1802401;79;21314;-81
2023/06/28 03:52:44;;;;;;;12.68;6.92;;;;;;;26.79;54.54;99324.80;1801488;79;21414;-81
2023/06/28 03:55:50;;;;;;;11.30;7.03;;;;;;;26.86;54.21;99328.02;1802727;79;21319;-81
2023/06/28 03:58:57;;;;;;;15.78;7.53;;;;;;;26.87;54.29;99331.11;1800407;79;21327;-80
2023/06/28 04:02:04;;;;;;;10.98;7.10;;;;;;;26.96;54.41;99328.69;1800865;79;21292;-80
2023/06/28 04:05:10;;;;;;;17.50;8.13;;;;;;;27.12;54.07;99332.06;1802368;79;21577;-80
2023/06/28 04:08:16;;;;;;;12.18;7.60;;;;;;;27.03;54.29;99329.67;1802089;79;21355;-80
2023/06/28 04:11:22;;;;;;;13.48;7.97;;;;;;;27.12;54.17;99328.43;1800890;79;21333;-80
2023/06/28 04:14:30;;;;;;;13.60;7.37;;;;;;;26.97;54.90;99325.31;1800920;79;21339;-80
2023/06/28 04:17:29;;;;;;;13.22;7.60;;;;;;;26.74;55.74;99324.31;1802492;79;21926;-80
2023/06/28 04:20:22;;;;;;;16.10;8.33;;;;;;;26.69;56.11;99322.42;1801628;79;21327;-82
2023/06/28 04:23:09;;;;;;;12.18;7.92;;;;;;;26.67;56.21;99323.86;1802172;79;21315;-80
2023/06/28 04:26:02;;;;;;;13.03;8.30;;;;;;;26.72;56.59;99325.17;1772058;79;21296;-80
2023/06/28 04:28:50;;;;;;;15.40;8.48;;;;;;;27.03;56.14;99319.86;1771181;79;21319;-81
2023/06/28 04:31:43;;;;;;;16.82;8.45;;;;;;;27.04;56.12;99324.89;1801095;79;21280;-80
2023/06/28 04:34:52;;;;;;;13.98;7.85;;;;;;;26.96;56.62;99329.23;1762853;81;21304;-80
2023/06/28 04:38:02;;;;;;;17.52;7.97;;;;;;;26.96;57.07;99329.23;1802332;79;21292;-81
2023/06/28 04:41:08;;;;;;;14.03;7.42;;;;;;;27.03;57.40;99339.50;1798421;79;21898;-80
2023/06/28 04:44:14;;;;;;;12.82;7.78;;;;;;;27.10;57.74;99337.71;1801565;79;21351;-80
2023/06/28 04:47:19;;;;;;;18.60;7.50;;;;;;;27.20;57.63;99336.97;1801457;79;21339;-80
2023/06/28 04:50:26;;;;;;;13.58;8.08;;;;;;;27.14;58.17;99331.17;1793662;79;21942;-80
2023/06/28 04:53:31;;;;;;;9.95;7.20;;;;;;;27.46;57.85;99328.03;1769095;81;21324;-80
2023/06/28 04:56:37;;;;;;;13.78;8.35;;;;;;;27.73;57.10;99332.27;1772268;79;21296;-80
2023/06/28 04:59:44;;;;;;;14.63;8.25;;;;;;;27.56;58.17;99326.98;1801140;79;21958;-79
2023/06/28 05:02:50;;;;;;;13.48;7.83;;;;;;;27.90;57.49;99329.38;1801499;79;21319;-79
2023/06/28 05:05:56;;;;;;;11.48;7.97;;;;;;;28.20;56.65;99331.50;1801386;79;21311;-80
2023/06/28 05:09:01;;;;;;;16.25;8.33;;;;;;;28.27;56.91;99333.87;1801436;79;21304;-80
2023/06/28 05:12:08;;;;;;;14.80;8.35;;;;;;;28.51;56.53;99340.09;1802177;79;21922;-79
2023/06/28 05:15:16;;;;;;;13.10;7.70;;;;;;;28.28;57.51;99338.37;1802325;79;21367;-79
2023/06/28 05:18:21;;;;;;;14.98;7.90;;;;;;;28.19;58.14;99331.83;1802911;79;21241;-79
2023/06/28 05:21:27;;;;;;;18.37;7.50;;;;;;;28.32;58.16;99329.53;1788488;79;21316;-80
2023/06/28 05:24:32;;;;;;;14.25;7.40;;;;;;;28.46;57.93;99322.48;1769464;81;21886;-80
2023/06/28 05:27:38;;;;;;;15.63;7.08;;;;;;;28.69;57.35;99324.72;1769770;81;21356;-80
2023/06/28 05:30:44;;;;;;;12.93;7.00;;;;;;;28.71;56.96;99313.42;1770965;79;21288;-80
2023/06/28 05:33:50;;;;;;;14.78;6.20;;;;;;;28.57;57.60;99309.84;1803085;79;21303;-79
2023/06/28 05:36:55;;;;;;;15.30;6.42;;;;;;;28.88;57.26;99317.48;1803031;79;21283;-79
2023/06/28 05:40:03;;;;;;;11.83;8.20;;;;;;;28.99;57.12;99311.89;1802632;79;21902;-80
2023/06/28 05:43:08;;;;;;;10.95;5.83;;;;;;;29.06;57.17;99317.88;1801988;79;21327;-79
2023/06/28 05:46:14;;;;;;;10.23;6.08;;;;;;;29.21;56.61;99324.48;1801782;79;21321;-80
2023/06/28 05:49:19;;;;;;;13.48;5.50;;;;;;;29.94;54.65;99315.66;1733699;82;21332;-80
2023/06/28 05:52:18;;;;;;;14.55;5.75;;;;;;;30.19;53.74;99307.00;1771091;81;21949;-80
2023/06/28 05:55:23;;;;;;;12.00;5.78;;;;;;;30.20;53.52;99318.53;1769846;81;21323;-79
2023/06/28 05:58:29;;;;;;;11.80;5.35;;;;;;;30.46;52.32;99321.37;1769612;81;21284;-79
2023/06/28 06:01:35;;;;;;;12.58;5.12;;;;;;;30.70;51.41;99326.49;1768443;80;21348;-81
2023/06/28 06:04:40;;;;;;;13.18;5.25;;;;;;;31.16;50.13;99322.94;1768700;81;21328;-80
2023/06/28 06:07:47;;;;;;;13.10;5.72;;;;;;;31.20;50.51;99316.87;1769131;81;21320;-80
2023/06/28 06:10:54;;;;;;;12.75;5.37;;;;;;;31.35;50.55;99309.86;1769490;79;21288;-81
2023/06/28 06:14:00;;;;;;;16.27;5.12;;;;;;;31.46;50.79;99304.65;1767995;81;21336;-80
2023/06/28 06:17:05;;;;;;;10.55;4.87;;;;;;;31.98;48.81;99311.45;1769174;81;21296;-80
2023/06/28 06:20:10;;;;;;;13.48;5.15;;;;;;;32.10;47.98;99310.72;1771401;79;21328;-79
2023/06/28 06:23:17;;;;;;;14.93;5.30;;;;;;;32.34;47.08;99312.86;1767716;81;21836;-80
2023/06/28 06:26:23;;;;;;;11.22;4.25;;;;;;;32.64;46.38;99303.11;1767892;81;21883;-80
2023/06/28 06:29:29;;;;;;;8.55;4.25;;;;;;;32.79;45.38;99302.48;1777655;79;21275;-80
2023/06/28 06:32:36;;;;;;;14.80;5.37;;;;;;;32.70;45.40;99303.72;1800428;79;21228;-80
2023/06/28 06:35:42;;;;;;;11.90;5.45;;;;;;;32.73;45.26;99310.94;1801490;79;21350;-80
2023/06/28 06:38:48;;;;;;;9.15;5.00;;;;;;;32.54;45.31;99320.53;1801026;79;21284;-81
2023/06/28 06:41:55;;;;;;;10.28;4.75;;;;;;;32.36;45.75;99316.16;1802660;79;21342;-79
2023/06/28 06:45:01;;;;;;;8.33;4.42;;;;;;;32.62;45.34;99323.88;1791173;79;21847;-80
2023/06/28 06:48:07;;;;;;;12.65;4.62;;;;;;;32.60;44.41;99323.97;1802639;79;21291;-81
2023/06/28 06:51:14;;;;;;;14.47;5.03;;;;;;;32.33;44.69;99332.43;1802575;79;21300;-80
2023/06/28 06:54:18;;;;;;;12.85;4.83;;;;;;;32.14;44.77;99334.31;1798787;79;21264;-80
2023/06/28 06:57:25;;;;;;;9.78;4.92;;;;;;;32.30;44.71;99326.27;1801016;79;21318;-81
2023/06/28 07:00:30;;;;;;;10.60;5.90;;;;;;;32.46;44.45;99332.73;1798786;79;21641;-80
2023/06/28 07:03:36;;;;;;;7.20;4.92;;;;;;;32.99;43.39;99338.20;1764206;81;21346;-80
2023/06/28 07:06:44;;;;;;;11.40;5.05;;;;;;;32.94;43.89;99332.17;1733874;82;21284;-79
2023/06/28 07:09:49;;;;;;;16.45;5.58;;;;;;;33.08;43.93;99338.94;1764301;81;21284;-80
2023/06/28 07:12:43;;;;;;;11.75;5.20;;;;;;;33.30;43.79;99338.49;1792852;79;21111;-80
2023/06/28 07:15:35;;;;;;;11.18;5.95;;;;;;;33.88;42.68;99336.19;1801107;79;21327;-81
2023/06/28 07:18:20;;;;;;;12.33;4.80;;;;;;;33.71;42.67;99335.27;1740150;81;21300;-79
2023/06/28 07:21:14;;;;;;;10.65;5.17;;;;;;;33.80;42.49;99343.06;1769071;81;21922;-80
2023/06/28 07:24:00;;;;;;;12.23;4.83;;;;;;;33.63;43.14;99351.80;1773819;79;21264;-80
2023/06/28 07:26:53;;;;;;;6.75;4.55;;;;;;;33.43;43.43;99342.80;1801207;79;21344;-80
2023/06/28 07:29:58;;;;;;;8.83;5.03;;;;;;;33.23;43.63;99345.34;1784653;79;21311;-80
2023/06/28 07:33:03;;;;;;;13.35;4.70;;;;;;;33.42;42.72;99342.55;1769166;81;21351;-81
2023/06/28 07:36:09;;;;;;;14.33;6.05;;;;;;;33.52;42.41;99348.60;1767702;81;21320;-79
2023/06/28 07:39:16;;;;;;;8.25;4.78;;;;;;;33.53;42.66;99358.75;1769347;81;21331;-80
2023/06/28 07:42:23;;;;;;;10.82;5.37;;;;;;;33.81;42.18;99360.31;1769196;81;21296;-79
2023/06/28 07:45:29;;;;;;;12.80;4.70;;;;;;;33.76;41.55;99368.23;1767529;81;21378;-80
2023/06/28 07:48:35;;;;;;;10.50;4.92;;;;;;;33.77;40.74;99364.20;1769176;81;21288;-80
2023/06/28 07:51:40;;;;;;;19.80;5.00;;;;;;;33.68;40.87;99362.08;1767695;81;21978;-80
2023/06/28 07:54:46;;;;;;;8.75;4.37;;;;;;;33.62;41.62;99360.07;1769764;79;21352;-79
2023/06/28 07:57:54;;;;;;;13.43;4.58;;;;;;;33.99;40.75;99356.67;1786211;79;21905;-80
2023/06/28 08:01:00;;;;;;;8.13;4.35;;;;;;;34.22;40.40;99357.00;1802960;79;21297;-79
2023/06/28 08:04:07;;;;;;;10.53;4.55;;;;;;;34.47;39.64;99355.55;1800354;78;21327;-80
2023/06/28 08:07:13;;;;;;;10.55;4.58;;;;;;;34.72;38.57;99354.27;1836722;78;21315;-82
2023/06/28 08:10:32;;;;;;;7.62;3.87;;;;;;;34.51;39.27;99354.48;1790153;78;21845;-80
2023/06/28 08:13:37;;;;;;;11.10;5.22;;;;;;;34.51;39.27;99354.48;1810211;78;21322;-81
2023/06/28 08:16:45;;;;;;;10.40;4.67;;;;;;;34.26;39.31;99360.78;1740721;81;21315;-80
2023/06/28 08:19:54;;;;;;;9.55;4.22;;;;;;;34.16;39.47;99355.61;1739309;80;22256;-79
2023/06/28 08:22:59;;;;;;;7.05;4.45;;;;;;;33.91;39.84;99348.25;1750178;81;21343;-80
2023/06/28 08:26:05;;;;;;;7.83;4.95;;;;;;;34.03;39.31;99349.11;1741667;82;21874;-80
2023/06/28 08:29:11;;;;;;;13.45;6.50;;;;;;;34.17;39.51;99351.58;1737481;82;21855;-79
2023/06/28 08:32:17;;;;;;;14.47;6.85;;;;;;;34.21;39.24;99361.03;1742913;82;21898;-81
2023/06/28 08:35:23;;;;;;;11.38;6.62;;;;;;;34.15;38.81;99367.29;1710042;84;21355;-80
2023/06/28 08:38:29;;;;;;;11.35;6.47;;;;;;;34.01;38.98;99370.49;1734354;82;21323;-80
2023/06/28 08:41:34;;;;;;;12.90;7.08;;;;;;;33.85;39.44;99370.95;1787669;80;21288;-81
2023/06/28 08:44:41;;;;;;;15.90;6.97;;;;;;;33.70;39.44;99369.06;1750299;80;21295;-81
2023/06/28 08:47:46;;;;;;;14.53;8.73;;;;;;;33.91;39.01;99377.44;1717008;82;21874;-80
2023/06/28 08:50:54;;;;;;;18.52;9.65;;;;;;;33.74;39.62;99371.43;1719948;82;21367;-81
2023/06/28 08:53:59;;;;;;;23.92;9.00;;;;;;;33.70;38.95;99373.31;1716933;83;21308;-81
2023/06/28 08:57:07;;;;;;;18.87;7.95;;;;;;;33.40;39.02;99371.81;1794260;80;21838;-80
2023/06/28 09:00:13;;;;;;;12.55;7.37;;;;;;;33.61;38.23;99372.59;1781514;80;21308;-81
2023/06/28 09:03:21;;;;;;;16.45;7.22;;;;;;;33.42;38.49;99372.30;1708326;83;21352;-80
2023/06/28 09:06:26;;;;;;;19.40;7.80;;;;;;;33.31;38.57;99375.59;1780124;80;21356;-81
2023/06/28 09:09:32;;;;;;;14.28;6.22;;;;;;;33.22;38.13;99369.20;1780394;80;21887;-81
2023/06/28 09:12:40;;;;;;;14.83;7.47;;;;;;;33.40;37.43;99368.98;1704656;84;21343;-81
2023/06/28 09:15:46;;;;;;;32.45;7.92;;;;;;;33.26;37.67;99375.79;1769913;81;21264;-81
2023/06/28 09:18:52;;;;;;;10.70;6.80;;;;;;;33.15;37.50;99376.59;1766747;79;21846;-82
2023/06/28 09:21:57;;;;;;;9.68;6.65;;;;;;;33.22;37.57;99373.45;1798501;79;21335;-82
2023/06/28 09:25:03;;;;;;;14.38;6.08;;;;;;;33.00;36.64;99379.50;1721239;83;21335;-81
2023/06/28 09:28:09;;;;;;;15.38;6.67;;;;;;;32.90;36.22;99368.58;1748795;82;21669;-81
2023/06/28 09:31:17;;;;;;;9.05;6.10;;;;;;;32.82;37.29;99362.64;1711509;82;21890;-80
2023/06/28 09:34:30;;;;;;;8.45;5.08;;;;;;;32.29;38.57;99369.89;1785757;79;21292;-80
2023/06/28 09:37:38;;;;;;;13.38;4.40;;;;;;;31.77;40.32;99380.06;1783852;80;21329;-80
2023/06/28 09:40:44;;;;;;;9.88;4.35;;;;;;;31.86;40.52;99378.65;1783798;80;21233;-81
2023/06/28 09:43:53;;;;;;;4.87;4.00;;;;;;;31.86;39.64;99382.06;1712409;82;21911;-81
2023/06/28 09:46:59;;;;;;;11.53;4.03;;;;;;;31.87;39.75;99378.06;1789882;80;21300;-80
2023/06/28 09:50:00;;;;;;;21.75;3.95;;;;;;;31.17;40.32;99377.42;1789597;80;21296;-80
2023/06/28 09:52:53;;;;;;;6.05;4.10;;;;;;;31.47;39.93;99369.88;1774837;79;21292;-81
2023/06/28 09:55:39;;;;;;;10.65;3.95;;;;;;;31.47;39.42;99369.88;1802202;79;21988;-81
2023/06/28 09:58:33;;;;;;;7.37;4.25;;;;;;;31.54;38.50;99375.27;1802552;79;21363;-81
2023/06/28 10:01:39;;;;;;;5.45;3.98;;;;;;;31.46;38.00;99389.41;1801177;79;21307;-80
2023/06/28 10:04:46;;;;;;;5.67;3.70;;;;;;;31.64;37.56;99388.77;1773213;79;21323;-81
2023/06/28 10:07:52;;;;;;;5.10;3.75;;;;;;;31.79;36.22;99400.33;1769572;81;21985;-81
2023/06/28 10:10:58;;;;;;;4.60;3.70;;;;;;;32.09;36.48;99403.22;1784731;79;21260;-80
2023/06/28 10:14:03;;;;;;;5.78;3.80;;;;;;;32.34;36.27;99411.88;1746849;81;21855;-81
2023/06/28 10:17:08;;;;;;;7.03;3.33;;;;;;;32.17;36.75;99421.30;1769781;79;21355;-80
2023/06/28 10:20:15;;;;;;;6.42;3.55;;;;;;;31.98;36.67;99423.97;1787928;79;21288;-81
2023/06/28 10:23:22;;;;;;;4.08;3.20;;;;;;;32.28;37.09;99420.58;1801958;79;21921;-82
2023/06/28 10:26:27;;;;;;;5.42;3.52;;;;;;;32.03;37.32;99421.53;1800484;79;21943;-81
2023/06/28 10:29:33;;;;;;;4.45;3.40;;;;;;;31.72;38.03;99427.48;1763637;79;21655;-81
2023/06/28 10:32:39;;;;;;;7.33;3.90;;;;;;;31.50;37.62;99428.55;1724714;83;21339;-80
2023/06/28 10:35:46;;;;;;;12.88;4.22;;;;;;;31.55;39.10;99430.61;1721093;83;21331;-80
2023/06/28 10:38:45;;;;;;;5.37;3.72;;;;;;;31.40;39.46;99430.33;1721753;83;21367;-81
2023/06/28 10:53:40;;;;;;;4.75;3.12;;;;;;;31.77;37.90;99435.19;1772084;81;21176;-82
2023/06/28 10:56:58;;;;;;;5.70;3.17;;;;;;;31.74;37.42;99445.75;1772959;81;21898;-81
2023/06/28 11:00:05;;;;;;;4.33;2.72;;;;;;;31.78;37.52;99449.56;1783414;80;21287;-81
2023/06/28 11:03:11;;;;;;;5.12;2.83;;;;;;;31.88;37.02;99454.63;1763202;80;21295;-81
2023/06/28 11:06:20;;;;;;;4.37;3.10;;;;;;;31.93;36.57;99459.52;1800963;79;21897;-82
2023/06/28 11:09:26;;;;;;;5.00;3.00;;;;;;;31.74;34.51;99461.30;1806270;79;21610;-81
2023/06/28 11:12:31;;;;;;;3.33;2.52;;;;;;;31.97;33.97;99461.09;1806145;79;21852;-80
2023/06/28 11:15:39;;;;;;;3.72;2.50;;;;;;;32.47;33.78;99461.77;1812963;79;21336;-81
2023/06/28 11:18:45;;;;;;;4.53;2.75;;;;;;;32.78;32.31;99468.44;1752452;79;21281;-81
2023/06/28 11:21:50;;;;;;;4.22;2.27;;;;;;;33.10;32.07;99472.55;1816709;79;21286;-81
2023/06/28 11:24:58;;;;;;;3.52;2.30;;;;;;;33.11;31.06;99465.70;1794093;79;21282;-81
2023/06/28 11:28:09;;;;;;;4.05;2.35;;;;;;;33.26;30.69;99467.87;1793627;79;21314;-80
2023/06/28 11:31:27;;;;;;;6.03;2.77;;;;;;;33.11;30.89;99472.78;1774833;79;21845;-80
2023/06/28 11:34:32;;;;;;;2.55;2.10;;;;;;;32.62;31.81;99478.14;1810771;77;21288;-81
2023/06/28 11:37:38;;;;;;;5.70;2.52;;;;;;;32.61;32.16;99487.81;1825531;77;21318;-81
2023/06/28 11:40:44;;;;;;;2.98;2.00;;;;;;;33.00;31.76;99502.12;1816745;79;21298;-81
2023/06/28 11:43:55;;;;;;;4.45;2.35;;;;;;;33.11;31.29;99503.94;1810661;79;21949;-82
2023/06/28 11:47:02;;;;;;;3.02;1.82;;;;;;;33.00;31.99;99504.13;1784015;80;21322;-81
2023/06/28 11:50:07;;;;;;;5.42;2.25;;;;;;;32.72;32.26;99506.05;1810601;79;21295;-81
2023/06/28 11:53:13;;;;;;;7.60;2.30;;;;;;;32.80;31.89;99508.00;1816455;79;21326;-81
2023/06/28 11:56:13;;;;;;;2.37;1.95;;;;;;;32.64;32.56;99512.58;1810727;79;21326;-81
2023/06/28 11:59:06;;;;;;;2.17;1.60;;;;;;;32.70;32.18;99521.14;1815523;79;21345;-81
2023/06/28 12:02:05;;;;;;;2.25;1.65;;;;;;;32.63;31.28;99520.02;1815805;79;21279;-81
2023/06/28 12:05:06;;;;;;;5.60;1.87;;;;;;;32.55;30.85;99517.47;1747617;82;21303;-82
2023/06/28 12:07:56;;;;;;;4.00;1.98;;;;;;;32.58;29.56;99527.29;1783731;80;21340;-81
2023/06/28 12:10:56;;;;;;;2.62;1.92;;;;;;;32.35;29.67;99526.72;1722021;81;21220;-82
2023/06/28 12:14:07;;;;;;;3.92;2.30;;;;;;;32.41;31.24;99516.89;1748206;81;21913;-81
2023/06/28 12:17:12;;;;;;;4.25;2.05;;;;;;;32.03;31.48;99514.28;1710666;82;21879;-80
2023/06/28 12:20:19;;;;;;;3.72;2.20;;;;;;;32.02;31.99;99508.38;1754984;80;21311;-80
2023/06/28 12:23:24;;;;;;;3.45;2.08;;;;;;;32.07;31.91;99494.64;1803263;79;21307;-80
2023/06/28 12:26:30;;;;;;;3.70;2.02;;;;;;;32.02;31.06;99498.48;1780808;79;21311;-80
2023/06/28 12:29:40;;;;;;;5.62;2.35;;;;;;;32.13;29.92;99494.69;1739238;82;21342;-81
2023/06/28 12:32:55;;;;;;;2.65;1.80;;;;;;;32.36;29.98;99498.06;1741557;82;21292;-80
2023/06/28 12:36:06;;;;;;;3.45;1.80;;;;;;;32.40;30.13;99492.01;1735164;82;21331;-80
2023/06/28 12:39:12;;;;;;;2.08;1.82;;;;;;;32.33;29.49;99487.45;1749112;82;21401;-81
2023/06/28 12:42:28;;;;;;;3.35;1.90;;;;;;;31.97;30.45;99497.26;1734369;82;21913;-81
2023/06/28 12:45:33;;;;;;;1.90;1.62;;;;;;;32.02;30.33;99504.73;1734995;82;21322;-81
2023/06/28 12:48:41;;;;;;;3.22;2.02;;;;;;;32.10;29.88;99489.73;1729053;82;21295;-81
2023/06/28 12:51:48;;;;;;;3.67;1.67;;;;;;;32.03;30.03;99497.89;1721051;83;21363;-80
2023/06/28 12:54:54;;;;;;;5.42;2.27;;;;;;;32.01;29.84;99479.03;1712458;84;21315;-80
2023/06/28 12:57:59;;;;;;;4.53;1.85;;;;;;;31.80;29.84;99476.90;1741848;82;21708;-81
2023/06/28 13:01:04;;;;;;;9.45;2.00;;;;;;;31.52;30.31;99460.11;1735504;81;22703;-80
2023/06/28 13:04:11;;;;;;;5.20;2.17;;;;;;;31.76;30.55;99458.98;1749022;82;21296;-80
2023/06/28 13:07:17;;;;;;;2.00;1.72;;;;;;;32.04;30.27;99461.37;1748441;82;21301;-80
2023/06/28 13:10:38;;;;;;;3.35;1.80;;;;;;;32.01;30.53;99462.06;1753247;81;21288;-80
2023/06/28 13:13:43;;;;;;;1.90;1.40;;;;;;;31.79;29.96;99468.77;1751157;82;21324;-81
2023/06/28 13:16:51;;;;;;;3.90;1.80;;;;;;;31.61;29.95;99472.22;1751084;82;21482;-81
2023/06/28 13:19:56;;;;;;;6.03;1.90;;;;;;;31.37;29.47;99474.78;1742619;82;21893;-81
2023/06/28 13:23:03;;;;;;;4.53;2.08;;;;;;;31.32;29.79;99474.95;1721420;83;21334;-79
2023/06/28 13:26:10;;;;;;;4.15;2.00;;;;;;;31.36;29.22;99468.30;1720018;83;21902;-80
2023/06/28 13:29:18;;;;;;;3.05;2.00;;;;;;;31.23;29.55;99468.70;1721489;82;21327;-80
2023/06/28 13:32:24;;;;;;;2.45;1.70;;;;;;;31.33;29.91;99469.55;1721018;82;21304;-80
2023/06/28 13:35:29;;;;;;;3.05;2.12;;;;;;;31.63;29.54;99471.91;1751545;82;21350;-81
2023/06/28 13:38:28;;;;;;;6.20;1.95;;;;;;;31.74;29.25;99472.61;1750192;82;21199;-80
2023/06/28 13:41:34;;;;;;;6.37;2.58;;;;;;;31.83;29.24;99468.37;1762782;81;21316;-81
2023/06/28 13:44:40;;;;;;;5.67;2.37;;;;;;;31.85;28.92;99466.61;1733902;82;21319;-80
2023/06/28 13:47:46;;;;;;;7.47;2.40;;;;;;;31.57;29.52;99465.58;1801754;79;21288;-81
2023/06/28 13:50:52;;;;;;;4.20;2.12;;;;;;;31.43;29.55;99458.75;1785108;79;21299;-81
2023/06/28 13:53:58;;;;;;;3.92;2.00;;;;;;;31.54;30.25;99452.14;1770941;81;21299;-81
2023/06/28 13:57:04;;;;;;;5.40;1.95;;;;;;;31.63;30.35;99450.13;1771008;81;21304;-81
2023/06/28 14:00:10;;;;;;;3.25;2.10;;;;;;;31.60;30.33;99451.38;1774295;79;21324;-81
2023/06/28 14:03:16;;;;;;;9.18;2.17;;;;;;;31.57;31.12;99447.21;1791173;80;21352;-79
2023/06/28 14:06:22;;;;;;;8.48;1.70;;;;;;;31.62;31.15;99442.82;1791077;80;21277;-80
2023/06/28 14:09:27;;;;;;;7.40;2.40;;;;;;;31.79;31.19;99452.63;1798720;79;21339;-81
2023/06/28 14:12:33;;;;;;;7.50;2.05;;;;;;;31.88;31.19;99454.63;1779366;80;21447;-80
2023/06/28 14:15:38;;;;;;;2.98;2.10;;;;;;;32.00;31.05;99448.52;1778489;80;21382;-81
2023/06/28 14:18:40;;;;;;;4.53;2.25;;;;;;;32.18;30.85;99463.38;1779205;80;21315;-81
2023/06/28 14:21:32;;;;;;;4.65;2.10;;;;;;;31.84;30.91;99464.38;1806989;79;21290;-80
2023/06/28 14:24:38;;;;;;;5.65;2.10;;;;;;;31.46;31.41;99455.81;1814168;79;21896;-80
2023/06/28 14:27:44;;;;;;;5.15;1.98;;;;;;;31.33;31.88;99454.84;1812638;79;21331;-81
2023/06/28 14:30:50;;;;;;;5.60;1.90;;;;;;;31.14;32.40;99455.75;1813042;79;21350;-79
2023/06/28 14:33:56;;;;;;;6.90;2.10;;;;;;;30.93;33.09;99466.31;1779251;79;21311;-80